Terminal Aerodrome Forecast
Issued by NWS Atlanta, GA

Home | Current Version | Previous Version | Text Only | Print | Product List | Glossary On
Versions: 1 2 3 4 5 6 7 8 9 10 11 12 13 14 15 16 17 18 19 20 21 22 23 24 25 26 27 28 29
000
FTAK31 PAJN 031700
TAFAHN
TAF
PAHN 031739Z 0318/0418 29012KT P6SM FEW100
     FM032000 VRB05KT P6SM FEW100
     FM032200 12008KT P6SM FEW100
     FM040300 VRB04KT P6SM SCT100
     FM040600 30012KT P6SM SCT100
      AMD LTD TO CLD VIS AND WIND=

USA.gov is the U.S. government's official web portal to all federal, state and local government web resources and services.